LGPZ/PVK METAR and TAF weather

Enter ICAO airport designator
Station Type Date Time Source
LGPZ METAR 2020/01/29 03:20 UTC NOAA

LGPZ 290320Z 24011KT 9999 FEW018 BKN070 15/09 Q1015


Station Type Date Time Source
LGPZ Decoded METAR 2020/01/29 03:20 UTC NOAA

Aktion Airport , Greece (LGPZ) 38-37N 020-46E 4M
Jan 28, 2020 - 10:20 PM EST / 2020.01.29 0320 UTC
Wind: from the WSW (240 degrees) at 13 MPH (11 KT):0
Visibility: greater than 7 mile(s):0
Sky conditions: mostly cloudy
Temperature: 59 F (15 C)
Dew Point: 48 F (9 C)
Relative Humidity: 67%
Pressure (altimeter): 29.97 in. Hg (1015 hPa)
ob: LGPZ 290320Z 24011KT 9999 FEW018 BKN070 15/09 Q1015
cycle: 3

Station Type Date Time Source
LGPZ TAF 2020/01/28 18:12 UTC NOAA

TAF TAF LGPZ 281700Z 2818/2918 27010KT 9999 FEW018 SCT070 PROB40
TEMPO 2818/2918 5000 RA SCT015 FEW018TCU BKN070 PROB30
TEMPO 2906/2915 FEW018CB

Example: see airport list